Time;durP1;ratioP1;P1;durP2;ratioP2;P2;SDS_P1;SDS_P2;PMS_P1;PMS_P2;Temp;Humidity;BMP_temperature;BMP_pressure;BME280_temperature;BME280_humidity;BME280_pressure;Samples;Min_cycle;Max_cycle;Signal;HPM_P1;HPM_P2
2023/08/24 00:00:33;;;;;;;8.27;4.25;;;;;;;23.73;56.78;100695.66;4066870;29;20043;-63
2023/08/24 00:02:37;;;;;;;7.40;3.83;;;;;;;23.64;57.34;100690.66;4072631;29;20453;-62
2023/08/24 00:04:40;;;;;;;6.88;3.90;;;;;;;23.59;57.40;100690.84;4082279;29;20490;-62
2023/08/24 00:06:43;;;;;;;8.57;4.40;;;;;;;23.56;58.24;100688.31;4065087;29;20174;-62
2023/08/24 00:08:45;;;;;;;11.60;3.95;;;;;;;23.58;58.54;100681.13;4083044;29;20389;-63
2023/08/24 00:10:50;;;;;;;8.70;4.47;;;;;;;23.52;59.34;100689.31;4069878;29;20040;-63
2023/08/24 00:12:52;;;;;;;;;;;;;;;23.39;59.74;100685.38;4065400;29;20040;-63
2023/08/24 00:14:55;;;;;;;6.85;3.72;;;;;;;23.35;60.13;100680.19;4065410;29;19923;-62
2023/08/24 00:16:58;;;;;;;9.00;4.15;;;;;;;23.38;60.59;100678.34;4065676;29;20036;-63
2023/08/24 00:19:01;;;;;;;10.77;5.05;;;;;;;23.42;60.49;100674.66;4069702;29;20401;-63
2023/08/24 00:21:04;;;;;;;11.32;4.13;;;;;;;23.35;60.90;100674.88;4070214;29;20051;-63
2023/08/24 00:23:06;;;;;;;9.77;3.55;;;;;;;23.31;60.78;100673.25;4066010;29;20138;-61
2023/08/24 00:25:10;;;;;;;11.45;4.40;;;;;;;23.27;61.00;100676.94;4107734;23;20051;-63
2023/08/24 00:27:14;;;;;;;12.63;4.75;;;;;;;23.30;60.73;100674.16;4094848;28;20036;-63
2023/08/24 00:29:17;;;;;;;10.05;4.05;;;;;;;23.34;60.74;100667.84;4110946;28;20078;-63
2023/08/24 00:31:19;;;;;;;8.48;4.60;;;;;;;23.39;61.02;100669.47;4093416;28;20122;-63
2023/08/24 00:33:24;;;;;;;9.48;4.35;;;;;;;23.38;60.69;100662.41;4098390;28;20039;-63
2023/08/24 00:35:30;;;;;;;9.13;4.10;;;;;;;23.34;60.48;100677.59;4078249;29;20043;-63
2023/08/24 00:37:33;;;;;;;7.75;3.90;;;;;;;23.25;60.53;100678.78;4079184;29;20036;-63
2023/08/24 00:39:37;;;;;;;10.93;4.28;;;;;;;23.17;60.74;100691.44;4078112;29;20040;-63
2023/08/24 00:41:41;;;;;;;9.05;4.30;;;;;;;23.18;60.54;100685.22;4077955;29;20048;-63
2023/08/24 00:43:45;;;;;;;10.30;4.47;;;;;;;23.18;60.65;100693.19;4077409;29;20498;-63
2023/08/24 00:45:48;;;;;;;;;;;;;;;23.05;60.52;100703.31;4080752;29;20094;-63
2023/08/24 00:47:52;;;;;;;8.73;4.18;;;;;;;23.00;60.34;100714.06;4088668;29;19960;-63
2023/08/24 00:49:56;;;;;;;10.77;3.88;;;;;;;22.99;60.59;100714.13;4083175;29;20138;-63
2023/08/24 00:51:59;;;;;;;9.18;4.90;;;;;;;23.05;60.46;100702.44;4078435;29;20040;-63
2023/08/24 00:54:02;;;;;;;8.07;4.00;;;;;;;23.12;60.28;100702.22;4095631;28;20051;-62
2023/08/24 00:56:05;;;;;;;8.80;4.18;;;;;;;23.18;60.58;100703.78;4081044;29;20039;-63
2023/08/24 00:58:09;;;;;;;6.70;3.83;;;;;;;23.20;60.46;100722.31;4081022;29;20099;-63
2023/08/24 01:00:15;;;;;;;7.90;4.60;;;;;;;23.16;59.74;100701.19;4079959;29;20043;-63
2023/08/24 01:02:18;;;;;;;5.85;3.53;;;;;;;23.15;60.01;100686.19;4080824;29;20517;-63
2023/08/24 01:04:20;;;;;;;11.20;4.75;;;;;;;23.17;60.48;100686.13;4083574;29;20046;-63
2023/08/24 01:06:23;;;;;;;7.47;3.83;;;;;;;23.18;60.61;100687.88;4079821;29;20086;-63
2023/08/24 01:08:26;;;;;;;9.90;4.55;;;;;;;23.20;59.91;100707.25;4082788;29;20059;-63
2023/08/24 01:10:39;;;;;;;9.82;4.20;;;;;;;23.17;59.77;100705.59;4063640;29;20481;-63
2023/08/24 01:13:02;;;;;;;8.82;3.95;;;;;;;23.16;59.55;100703.84;4096526;28;20417;-63
2023/08/24 01:15:14;;;;;;;12.27;4.43;;;;;;;23.23;59.62;100711.59;4080024;29;20108;-63
2023/08/24 01:17:23;;;;;;;11.38;4.25;;;;;;;23.24;59.16;100713.31;4079236;29;20047;-64
2023/08/24 01:19:37;;;;;;;12.13;4.60;;;;;;;23.24;59.34;100714.19;4082652;29;20063;-63
2023/08/24 01:21:40;;;;;;;10.53;4.40;;;;;;;23.30;59.03;100713.09;4091673;29;20035;-63
2023/08/24 01:23:50;;;;;;;8.23;4.20;;;;;;;23.28;59.44;100717.63;4087507;29;20501;-63
2023/08/24 01:25:54;;;;;;;6.22;3.78;;;;;;;23.27;59.45;100719.38;4084946;29;20050;-63
2023/08/24 01:28:00;;;;;;;10.90;4.50;;;;;;;23.28;59.19;100709.66;4068501;29;20143;-63
2023/08/24 01:30:04;;;;;;;5.88;3.67;;;;;;;23.17;59.21;100702.03;4069133;29;20103;-62
2023/08/24 01:32:11;;;;;;;6.65;3.90;;;;;;;23.14;59.04;100707.47;4069036;29;20044;-63
2023/08/24 01:34:14;;;;;;;11.30;4.38;;;;;;;23.10;59.00;100705.78;4069056;29;20040;-62
2023/08/24 01:36:17;;;;;;;9.18;4.40;;;;;;;23.05;58.83;100710.41;4057705;29;20044;-63
2023/08/24 01:38:20;;;;;;;9.10;4.07;;;;;;;23.01;59.08;100706.97;4066433;29;20388;-63
2023/08/24 01:40:33;;;;;;;6.38;4.05;;;;;;;23.02;59.11;100698.97;4077924;29;20047;-63
2023/08/24 01:42:43;;;;;;;6.88;3.80;;;;;;;22.94;59.37;100695.72;4084499;29;20044;-63
2023/08/24 01:44:51;;;;;;;8.10;3.80;;;;;;;22.99;59.64;100699.06;4084594;29;20044;-63
2023/08/24 01:46:56;;;;;;;9.98;3.97;;;;;;;22.96;59.46;100696.53;4083939;29;20040;-63
2023/08/24 01:49:01;;;;;;;7.72;3.78;;;;;;;22.95;59.30;100692.13;4084501;29;20082;-63
2023/08/24 01:51:24;;;;;;;8.93;4.07;;;;;;;22.92;59.26;100692.25;4084691;29;20094;-63
2023/08/24 01:53:27;;;;;;;7.88;3.45;;;;;;;22.87;59.27;100696.84;4084284;29;20039;-63
2023/08/24 01:55:32;;;;;;;7.20;3.70;;;;;;;22.84;59.48;100696.94;4080415;29;20482;-63
2023/08/24 01:57:33;;;;;;;10.52;4.00;;;;;;;22.85;59.69;100701.31;4096999;28;20042;-63
2023/08/24 01:59:36;;;;;;;8.30;3.80;;;;;;;22.89;59.61;100686.19;4080419;29;20051;-63
2023/08/24 02:01:41;;;;;;;8.90;4.03;;;;;;;22.89;59.82;100686.19;4095295;28;20105;-63
2023/08/24 02:03:45;;;;;;;7.93;4.20;;;;;;;22.88;59.61;100685.34;4077726;29;20040;-63
2023/08/24 02:05:48;;;;;;;8.00;4.78;;;;;;;22.88;59.36;100680.03;4080592;29;20039;-63
2023/08/24 02:07:51;;;;;;;8.32;4.70;;;;;;;22.90;59.19;100678.19;4080250;29;20680;-63
2023/08/24 02:09:54;;;;;;;6.32;4.63;;;;;;;22.86;59.09;100681.84;4079208;29;20043;-63
2023/08/24 02:11:57;;;;;;;10.77;4.25;;;;;;;22.87;59.42;100683.59;4078922;29;20605;-63
2023/08/24 02:14:00;;;;;;;10.43;4.93;;;;;;;22.97;59.56;100685.00;4080561;29;20059;-63
2023/08/24 02:16:03;;;;;;;8.23;3.35;;;;;;;23.05;59.49;100674.13;4095781;28;20074;-63
2023/08/24 02:18:07;;;;;;;6.95;4.40;;;;;;;23.04;59.23;100674.19;4094120;28;20043;-63
2023/08/24 02:20:11;;;;;;;9.43;4.82;;;;;;;23.00;59.46;100674.31;4092806;28;20027;-63
2023/08/24 02:22:14;;;;;;;7.55;3.95;;;;;;;23.00;59.64;100674.31;4079846;29;20110;-63
2023/08/24 02:24:17;;;;;;;7.35;4.28;;;;;;;23.01;59.67;100675.16;4080297;29;20052;-63
2023/08/24 02:26:21;;;;;;;10.23;4.50;;;;;;;23.05;59.54;100676.78;4082482;29;20103;-63
2023/08/24 02:28:24;;;;;;;11.43;4.30;;;;;;;23.04;59.74;100671.53;4080632;29;20043;-63
2023/08/24 02:30:27;;;;;;;6.97;4.00;;;;;;;22.99;59.85;100664.59;4095423;28;20972;-63
2023/08/24 02:32:30;;;;;;;8.65;4.60;;;;;;;22.96;60.02;100672.66;4078831;29;20059;-63
2023/08/24 02:34:34;;;;;;;6.57;4.18;;;;;;;22.90;59.99;100664.94;4094096;28;20053;-63
2023/08/24 02:36:37;;;;;;;7.93;4.47;;;;;;;22.82;60.06;100664.31;4082655;29;20036;-63
2023/08/24 02:38:40;;;;;;;8.68;4.32;;;;;;;22.76;60.12;100661.88;4083232;29;20039;-63
2023/08/24 02:40:43;;;;;;;10.23;5.03;;;;;;;22.74;60.51;100655.75;4082547;29;20044;-63
2023/08/24 02:42:46;;;;;;;9.63;4.53;;;;;;;22.81;60.35;100654.66;4065194;29;20072;-63
2023/08/24 02:44:48;;;;;;;6.18;4.40;;;;;;;22.87;59.99;100641.19;4079289;29;20429;-63
2023/08/24 02:46:52;;;;;;;9.35;4.90;;;;;;;22.87;60.36;100648.25;4081129;29;20035;-63
2023/08/24 02:48:54;;;;;;;10.75;5.32;;;;;;;22.90;60.13;100646.38;4080448;29;20128;-64
2023/08/24 02:51:00;;;;;;;7.85;5.60;;;;;;;22.82;59.79;100643.09;4077753;29;20071;-63
2023/08/24 02:53:03;;;;;;;9.60;5.65;;;;;;;22.78;59.85;100650.31;4080661;29;20059;-63
2023/08/24 02:55:07;;;;;;;6.18;4.43;;;;;;;22.73;59.86;100644.28;4081940;29;20083;-63
2023/08/24 02:57:10;;;;;;;9.52;5.13;;;;;;;22.67;59.82;100640.03;4064334;29;20108;-63
2023/08/24 02:59:13;;;;;;;8.30;4.57;;;;;;;22.70;59.70;100640.88;4082475;29;20431;-63
2023/08/24 03:01:15;;;;;;;8.48;4.25;;;;;;;22.73;58.81;100648.72;4080173;29;20158;-64
2023/08/24 03:03:19;;;;;;;8.82;4.95;;;;;;;22.75;58.67;100631.84;4093218;28;20035;-63
2023/08/24 03:05:22;;;;;;;6.28;4.57;;;;;;;22.78;57.96;100641.47;4077976;29;20114;-63
2023/08/24 03:07:26;;;;;;;10.07;5.38;;;;;;;22.84;56.18;100649.22;4084332;29;20046;-63
2023/08/24 03:09:28;;;;;;;7.93;4.68;;;;;;;22.80;56.10;100663.50;4079958;28;20039;-63
2023/08/24 03:11:31;;;;;;;6.78;4.43;;;;;;;22.83;56.39;100655.44;4078336;29;20166;-63
2023/08/24 03:13:37;;;;;;;9.90;4.55;;;;;;;22.86;56.29;100658.00;4081652;29;20530;-63
2023/08/24 03:15:39;;;;;;;9.18;4.32;;;;;;;22.92;56.06;100655.13;4094268;28;20039;-63
2023/08/24 03:17:42;;;;;;;9.75;4.70;;;;;;;22.91;56.36;100648.09;4094186;28;20035;-63
2023/08/24 03:19:45;;;;;;;12.35;4.93;;;;;;;22.89;56.33;100639.31;4096084;28;20485;-63
2023/08/24 03:21:47;;;;;;;8.45;4.60;;;;;;;22.95;56.79;100623.19;4078609;29;20036;-63
2023/08/24 03:23:52;;;;;;;12.68;4.50;;;;;;;23.04;57.16;100616.72;4089062;29;20102;-63
2023/08/24 03:25:56;;;;;;;9.60;4.10;;;;;;;23.12;57.57;100603.22;4106906;28;20101;-63
2023/08/24 03:27:59;;;;;;;8.18;4.03;;;;;;;23.12;57.84;100600.59;4099666;28;20457;-63
2023/08/24 03:30:04;;;;;;;7.65;3.65;;;;;;;23.11;57.77;100589.09;4083829;29;20552;-63
2023/08/24 03:32:07;;;;;;;8.23;3.95;;;;;;;23.11;57.71;100572.31;4083830;29;20501;-63
2023/08/24 03:34:09;;;;;;;7.95;4.18;;;;;;;23.15;58.31;100558.03;4091230;28;20552;-63
2023/08/24 03:36:12;;;;;;;9.57;4.00;;;;;;;23.24;57.08;100544.41;4087630;29;20462;-63
2023/08/24 03:38:15;;;;;;;6.28;4.25;;;;;;;23.22;56.44;100529.47;4082650;29;20078;-63
2023/08/24 03:40:20;;;;;;;9.30;4.65;;;;;;;23.17;56.57;100516.38;4087987;29;20050;-63
2023/08/24 03:42:23;;;;;;;8.40;4.43;;;;;;;23.13;56.93;100507.69;4078970;29;20490;-63
2023/08/24 03:44:26;;;;;;;11.68;6.07;;;;;;;22.97;56.89;100503.88;4085790;29;20078;-63
2023/08/24 03:46:28;;;;;;;8.18;4.82;;;;;;;22.97;57.47;100503.88;4096405;28;20043;-63
2023/08/24 03:48:32;;;;;;;10.40;5.82;;;;;;;22.98;56.70;100506.47;4074776;29;20044;-63
2023/08/24 03:50:35;;;;;;;10.23;4.97;;;;;;;22.91;55.98;100520.84;4093164;29;20047;-63
2023/08/24 03:52:39;;;;;;;13.10;5.85;;;;;;;22.72;56.12;100530.38;4074829;29;20320;-63
2023/08/24 03:54:42;;;;;;;9.50;5.53;;;;;;;22.82;55.26;100540.59;4083963;29;20490;-63
2023/08/24 03:56:46;;;;;;;10.70;4.95;;;;;;;22.71;55.87;100550.72;4082000;29;20569;-63
2023/08/24 03:58:50;;;;;;;7.72;4.30;;;;;;;22.63;56.05;100558.06;4098729;29;20065;-63
2023/08/24 04:00:53;;;;;;;6.90;3.92;;;;;;;22.67;56.09;100557.03;4082214;29;20058;-63
2023/08/24 04:02:58;;;;;;;10.07;4.80;;;;;;;22.81;56.44;100557.41;4067075;29;20048;-63
2023/08/24 04:05:02;;;;;;;9.48;4.07;;;;;;;22.88;56.12;100560.72;4075489;29;20051;-63
2023/08/24 04:07:05;;;;;;;5.47;3.58;;;;;;;22.92;55.91;100564.97;4073832;29;22008;-63
2023/08/24 04:09:09;;;;;;;6.75;3.63;;;;;;;22.94;55.97;100557.84;4074630;29;20035;-63
2023/08/24 04:11:12;;;;;;;8.98;4.25;;;;;;;23.03;56.28;100554.00;4077025;29;21938;-55
2023/08/24 04:13:16;;;;;;;11.80;3.92;;;;;;;23.16;56.44;100555.31;4076894;29;21165;-56
2023/08/24 04:15:18;;;;;;;13.23;4.60;;;;;;;23.21;56.57;100549.84;4094889;28;20429;-55
2023/08/24 04:17:21;;;;;;;12.43;5.15;;;;;;;23.23;56.21;100549.78;4080910;29;20043;-56
2023/08/24 04:19:24;;;;;;;8.55;4.63;;;;;;;23.14;56.11;100556.28;4079952;29;20078;-57
2023/08/24 04:21:25;;;;;;;11.70;4.38;;;;;;;23.04;56.50;100550.41;4074710;29;20043;-57
2023/08/24 04:23:28;;;;;;;8.85;3.72;;;;;;;23.06;56.75;100558.34;4073986;29;20047;-58
2023/08/24 04:25:31;;;;;;;10.40;3.88;;;;;;;23.12;56.31;100566.09;4074872;29;20440;-57
2023/08/24 04:27:35;;;;;;;9.60;4.05;;;;;;;23.21;56.23;100557.81;4097523;28;20043;-57
2023/08/24 04:29:39;;;;;;;7.63;3.80;;;;;;;23.25;56.46;100556.78;4085640;29;20042;-57
2023/08/24 04:31:42;;;;;;;8.38;3.42;;;;;;;23.37;56.06;100562.56;4071307;29;20043;-57
2023/08/24 04:33:45;;;;;;;8.20;3.53;;;;;;;23.42;56.03;100552.63;4073126;29;20036;-65
2023/08/24 04:35:48;;;;;;;12.65;4.22;;;;;;;23.39;56.13;100552.72;4074831;29;20067;-63
2023/08/24 04:37:50;;;;;;;10.87;4.70;;;;;;;23.29;55.69;100557.50;4086489;28;20456;-63
2023/08/24 04:39:54;;;;;;;11.40;4.53;;;;;;;23.17;55.79;100559.72;4074496;29;20474;-63
2023/08/24 04:41:56;;;;;;;8.55;4.80;;;;;;;23.09;56.32;100550.28;4068179;29;20049;-63
2023/08/24 04:43:59;;;;;;;9.52;4.75;;;;;;;23.04;56.73;100547.75;4071642;29;20158;-63
2023/08/24 04:46:04;;;;;;;10.57;4.85;;;;;;;23.01;56.41;100538.16;4083984;29;20047;-63
2023/08/24 04:48:07;;;;;;;11.45;5.20;;;;;;;22.99;56.43;100539.97;4074410;29;20086;-63
2023/08/24 04:50:10;;;;;;;14.80;5.93;;;;;;;22.95;56.17;100545.47;4086805;28;20046;-63
2023/08/24 04:52:14;;;;;;;11.68;5.30;;;;;;;22.93;56.34;100544.66;4086281;29;20071;-63
2023/08/24 04:54:17;;;;;;;10.38;5.07;;;;;;;22.89;56.48;100549.19;4081587;29;20051;-63
2023/08/24 04:56:20;;;;;;;12.52;5.60;;;;;;;22.88;56.84;100547.47;4078192;29;20070;-63
2023/08/24 04:58:24;;;;;;;20.05;6.68;;;;;;;22.87;56.49;100544.84;4080475;29;20032;-63
2023/08/24 05:00:26;;;;;;;;;;;;;;;22.73;56.93;100545.34;4070685;29;20044;-63
2023/08/24 05:02:30;;;;;;;23.90;6.70;;;;;;;22.74;57.15;100555.06;4082831;29;19969;-63
2023/08/24 05:04:33;;;;;;;15.70;6.20;;;;;;;22.75;57.13;100551.47;4077281;29;20119;-63
2023/08/24 05:06:36;;;;;;;14.18;5.57;;;;;;;22.70;57.21;100553.41;4079767;29;20063;-63
2023/08/24 05:08:39;;;;;;;15.13;6.22;;;;;;;22.66;57.43;100552.63;4076857;29;20036;-63
2023/08/24 05:10:41;;;;;;;14.63;5.88;;;;;;;22.66;57.69;100557.94;4082150;29;20067;-63
2023/08/24 05:12:44;;;;;;;14.93;5.32;;;;;;;22.65;57.91;100567.69;4072730;29;20036;-63
2023/08/24 05:14:47;;;;;;;13.77;5.80;;;;;;;22.71;57.99;100571.91;4079066;29;20466;-63
2023/08/24 05:16:50;;;;;;;16.15;6.50;;;;;;;22.76;57.91;100572.59;4074215;29;20043;-63
2023/08/24 05:18:54;;;;;;;14.60;6.25;;;;;;;22.74;58.24;100581.56;4080400;29;20451;-63
2023/08/24 05:20:57;;;;;;;16.85;6.75;;;;;;;22.78;57.97;100588.44;4092052;28;20449;-63
2023/08/24 05:22:59;;;;;;;15.82;6.22;;;;;;;22.77;58.15;100597.34;4078360;29;20044;-63
2023/08/24 05:25:02;;;;;;;16.73;6.05;;;;;;;22.81;57.92;100610.44;4073205;29;20455;-63
2023/08/24 05:27:05;;;;;;;18.08;6.82;;;;;;;22.86;57.44;100622.66;4076277;28;20078;-63
2023/08/24 05:29:08;;;;;;;15.55;6.43;;;;;;;22.84;58.00;100649.22;4071788;29;20451;-63
2023/08/24 05:31:11;;;;;;;16.45;6.25;;;;;;;22.84;57.27;100673.09;4091610;28;20114;-63
2023/08/24 05:33:15;;;;;;;11.38;5.53;;;;;;;22.82;57.36;100690.81;4082724;29;20095;-63
2023/08/24 05:35:20;;;;;;;8.90;5.05;;;;;;;22.81;57.40;100710.31;4079087;29;20126;-63
2023/08/24 05:37:21;;;;;;;11.10;4.95;;;;;;;22.74;57.43;100724.69;4079804;29;20039;-63
2023/08/24 05:39:24;;;;;;;16.02;5.25;;;;;;;22.72;57.47;100716.78;4071043;29;20439;-62
2023/08/24 05:41:27;;;;;;;7.80;3.95;;;;;;;22.58;57.68;100726.94;4081334;29;20067;-63
2023/08/24 05:43:30;;;;;;;7.22;4.47;;;;;;;22.55;57.36;100733.19;4084461;28;20445;-63
2023/08/24 05:45:33;;;;;;;23.92;4.75;;;;;;;22.45;57.42;100740.56;4080117;29;20120;-63
2023/08/24 05:47:36;;;;;;;13.90;4.50;;;;;;;22.49;57.34;100731.59;4093237;28;20142;-63
2023/08/24 05:49:38;;;;;;;7.40;4.38;;;;;;;22.36;58.09;100735.56;4077027;29;20042;-62
2023/08/24 05:51:42;;;;;;;8.68;4.80;;;;;;;22.46;57.45;100728.19;4075929;29;20040;-63
2023/08/24 05:53:45;;;;;;;14.77;5.15;;;;;;;22.38;58.09;100724.91;4076313;29;20491;-63
2023/08/24 05:55:47;;;;;;;8.30;4.55;;;;;;;22.35;58.18;100709.13;4078129;29;20069;-63
2023/08/24 05:57:50;;;;;;;9.27;4.97;;;;;;;22.41;58.06;100696.53;4072456;29;20044;-63
2023/08/24 05:59:53;;;;;;;8.35;4.70;;;;;;;22.37;58.49;100700.22;4081156;29;20063;-62
2023/08/24 06:01:56;;;;;;;8.63;5.05;;;;;;;22.47;58.64;100691.06;4081723;29;20046;-63
2023/08/24 06:03:58;;;;;;;11.00;5.50;;;;;;;22.44;59.06;100691.16;4075709;29;20047;-63
2023/08/24 06:06:08;;;;;;;14.25;7.07;;;;;;;22.58;58.63;100685.41;4077038;29;20036;-63
2023/08/24 06:08:12;;;;;;;10.48;6.03;;;;;;;22.48;58.65;100682.16;4065819;29;20055;-63
2023/08/24 06:10:15;;;;;;;12.63;5.60;;;;;;;22.43;59.14;100685.91;4083762;29;20044;-63
2023/08/24 06:12:17;;;;;;;11.23;5.95;;;;;;;22.44;58.92;100690.28;4082159;29;20126;-63
2023/08/24 06:14:20;;;;;;;9.32;5.20;;;;;;;22.45;59.32;100682.28;4071177;29;20135;-63
2023/08/24 06:16:23;;;;;;;15.02;5.78;;;;;;;22.53;59.15;100689.13;4080655;29;20452;-63
2023/08/24 06:18:26;;;;;;;15.38;6.07;;;;;;;22.51;59.34;100686.50;4084633;29;20573;-63
2023/08/24 06:20:29;;;;;;;20.58;6.95;;;;;;;22.61;58.83;100687.09;4079466;29;20124;-63
2023/08/24 06:22:31;;;;;;;14.73;6.10;;;;;;;22.60;59.02;100674.75;4074649;29;20040;-63
2023/08/24 06:24:36;;;;;;;19.60;6.97;;;;;;;22.65;59.11;100671.03;4090020;23;20040;-66
2023/08/24 06:26:39;;;;;;;15.65;7.13;;;;;;;22.73;58.65;100662.81;4073521;29;20109;-66
2023/08/24 06:28:42;;;;;;;14.95;7.88;;;;;;;22.57;59.37;100667.75;4073073;29;20459;-66
2023/08/24 06:30:46;;;;;;;17.45;7.43;;;;;;;22.47;59.53;100658.38;4074235;29;20043;-66
2023/08/24 06:32:49;;;;;;;14.48;7.50;;;;;;;22.54;59.26;100648.47;4081117;29;20134;-66
2023/08/24 06:34:52;;;;;;;22.17;7.50;;;;;;;22.62;58.67;100642.00;4079128;29;20047;-66
2023/08/24 06:36:55;;;;;;;16.63;8.70;;;;;;;22.34;59.38;100642.03;4086420;29;20071;-66
2023/08/24 06:38:58;;;;;;;20.55;8.70;;;;;;;22.27;59.50;100641.31;4104319;28;20083;-66
2023/08/24 06:41:02;;;;;;;15.65;7.65;;;;;;;22.17;60.03;100631.94;4088396;28;20083;-66
2023/08/24 06:43:06;;;;;;;9.23;5.85;;;;;;;22.39;59.45;100640.09;4086521;29;20050;-67
2023/08/24 06:45:10;;;;;;;10.80;6.07;;;;;;;22.28;59.80;100635.13;4085908;28;20130;-66
2023/08/24 06:47:12;;;;;;;10.73;6.30;;;;;;;22.11;60.34;100629.47;4084416;29;20087;-66
2023/08/24 06:49:15;;;;;;;9.07;6.57;;;;;;;22.14;60.18;100632.03;4085458;29;20039;-66
2023/08/24 06:51:18;;;;;;;11.00;6.32;;;;;;;22.08;60.37;100635.72;4091531;29;20039;-66
2023/08/24 06:53:22;;;;;;;10.00;6.47;;;;;;;22.05;60.58;100630.53;4084601;28;20082;-67
2023/08/24 06:55:25;;;;;;;8.48;5.80;;;;;;;22.00;60.59;100624.50;4086678;29;20047;-66
2023/08/24 06:57:29;;;;;;;11.40;6.15;;;;;;;21.88;61.52;100627.53;4090616;28;20070;-66
2023/08/24 06:59:32;;;;;;;11.93;6.20;;;;;;;21.99;61.31;100622.78;4070922;29;20040;-66
2023/08/24 07:01:35;;;;;;;11.70;6.50;;;;;;;22.07;60.99;100619.91;4094818;29;20043;-66
2023/08/24 07:03:38;;;;;;;12.15;6.57;;;;;;;22.07;61.36;100627.84;4088442;28;20139;-65
2023/08/24 07:05:41;;;;;;;9.45;6.07;;;;;;;22.14;60.93;100627.59;4087106;29;20046;-66
2023/08/24 07:07:44;;;;;;;10.70;6.65;;;;;;;22.22;60.86;100629.13;4084195;29;20406;-66
2023/08/24 07:09:47;;;;;;;12.70;5.70;;;;;;;22.20;60.58;100631.84;4087690;29;20032;-67
2023/08/24 07:11:50;;;;;;;11.95;6.00;;;;;;;22.32;60.39;100633.25;4086689;29;20039;-66
2023/08/24 07:13:54;;;;;;;10.68;5.95;;;;;;;22.48;59.42;100609.78;4087188;29;20680;-66
2023/08/24 07:15:57;;;;;;;10.20;5.68;;;;;;;22.30;60.23;100609.44;4088952;29;20055;-66
2023/08/24 07:18:00;;;;;;;9.38;6.20;;;;;;;22.42;60.03;100612.63;4087879;28;20039;-66
2023/08/24 07:20:05;;;;;;;14.18;6.47;;;;;;;22.54;59.60;100612.22;4084538;29;20071;-66
2023/08/24 07:22:08;;;;;;;11.30;6.47;;;;;;;22.64;59.39;100603.03;4086849;29;20066;-66
2023/08/24 07:24:11;;;;;;;14.85;6.15;;;;;;;22.78;59.22;100602.59;4086894;29;20052;-66
2023/08/24 07:26:14;;;;;;;12.32;5.13;;;;;;;22.88;59.20;100603.16;4084427;29;20067;-66
2023/08/24 07:28:17;;;;;;;26.00;8.15;;;;;;;23.10;58.52;100605.03;4087311;29;20043;-65
2023/08/24 07:30:21;;;;;;;21.35;7.38;;;;;;;23.40;56.82;100607.53;4092128;29;20027;-66
2023/08/24 07:32:36;;;;;;;22.70;8.35;;;;;;;23.50;56.68;100620.38;4086515;29;20051;-67
2023/08/24 07:34:39;;;;;;;18.63;6.80;;;;;;;23.52;56.43;100620.34;4084466;29;20135;-66
2023/08/24 07:36:42;;;;;;;16.80;7.40;;;;;;;23.43;56.95;100620.69;4086812;29;20071;-65
2023/08/24 07:38:46;;;;;;;25.98;7.32;;;;;;;23.44;56.18;100625.94;4086709;29;20608;-66
2023/08/24 07:40:49;;;;;;;27.55;8.65;;;;;;;23.45;56.71;100645.34;4086830;29;20122;-66
2023/08/24 07:42:55;;;;;;;17.90;7.13;;;;;;;23.47;56.83;100647.03;4085801;29;20047;-66
2023/08/24 07:44:58;;;;;;;26.08;8.15;;;;;;;23.54;56.74;100642.38;4086433;29;20043;-66
2023/08/24 07:47:02;;;;;;;21.63;7.05;;;;;;;23.54;56.94;100637.09;4092021;29;20110;-66
2023/08/24 07:49:05;;;;;;;25.50;6.93;;;;;;;23.66;56.37;100633.09;4086472;29;20437;-66
2023/08/24 07:51:08;;;;;;;17.25;7.10;;;;;;;23.82;55.49;100638.69;4086908;29;20090;-66
2023/08/24 07:53:11;;;;;;;15.25;6.35;;;;;;;23.72;56.30;100637.31;4084843;28;20078;-66
2023/08/24 07:55:13;;;;;;;10.05;5.80;;;;;;;23.70;56.66;100640.88;4088954;28;20075;-66
2023/08/24 07:57:16;;;;;;;15.82;5.53;;;;;;;23.79;56.51;100652.09;4109903;28;20050;-66
2023/08/24 07:59:18;;;;;;;17.40;5.88;;;;;;;23.82;56.98;100644.00;4089551;28;20045;-66
2023/08/24 08:01:21;;;;;;;13.52;6.03;;;;;;;23.87;56.62;100650.03;4086708;29;20561;-66
2023/08/24 08:03:25;;;;;;;11.48;5.57;;;;;;;23.92;56.59;100648.06;4086391;29;20403;-66
2023/08/24 08:05:28;;;;;;;;;;;;;;;23.92;56.59;100641.88;4084833;29;20071;-67
2023/08/24 08:07:31;;;;;;;14.45;6.50;;;;;;;24.11;55.89;100631.41;4087952;29;20025;-66
2023/08/24 08:09:34;;;;;;;15.00;6.95;;;;;;;24.14;55.91;100623.34;4083063;29;20035;-66
2023/08/24 08:11:37;;;;;;;11.63;5.78;;;;;;;24.25;55.44;100613.13;4084576;29;20509;-66
2023/08/24 08:13:40;;;;;;;13.65;5.35;;;;;;;24.37;55.45;100615.31;4086664;29;20046;-65
2023/08/24 08:15:42;;;;;;;8.70;5.97;;;;;;;24.53;54.43;100614.66;4086084;29;20087;-66
2023/08/24 08:17:45;;;;;;;9.63;5.38;;;;;;;24.64;54.83;100600.97;4082393;29;20043;-66
2023/08/24 08:19:50;;;;;;;9.48;4.15;;;;;;;24.64;55.06;100580.53;4086488;29;20050;-66
2023/08/24 08:21:53;;;;;;;8.02;4.45;;;;;;;24.83;55.03;100577.09;4088950;29;20126;-66
2023/08/24 08:23:56;;;;;;;13.82;5.85;;;;;;;24.97;54.40;100557.88;4086853;29;20147;-66
2023/08/24 08:25:59;;;;;;;13.48;6.50;;;;;;;25.18;54.05;100550.75;4089561;29;20043;-66
2023/08/24 08:28:00;;;;;;;10.63;5.20;;;;;;;25.23;53.95;100540.72;4086889;28;20036;-66
2023/08/24 08:30:05;;;;;;;14.43;6.25;;;;;;;25.39;53.19;100544.47;4086966;28;20039;-65
2023/08/24 08:32:08;;;;;;;14.40;5.90;;;;;;;25.37;52.95;100535.69;4089999;29;20043;-66
2023/08/24 08:34:10;;;;;;;11.50;4.88;;;;;;;25.31;53.59;100532.44;4085809;28;20059;-67
2023/08/24 08:36:15;;;;;;;11.57;5.30;;;;;;;25.40;52.22;100530.22;4086706;29;20130;-66
2023/08/24 08:38:17;;;;;;;11.45;4.45;;;;;;;25.39;51.70;100528.50;4092773;29;20074;-66
2023/08/24 08:40:21;;;;;;;12.07;5.32;;;;;;;25.44;50.93;100529.13;4086676;29;20031;-66
2023/08/24 08:42:24;;;;;;;9.23;4.40;;;;;;;25.49;51.28;100528.91;4086362;29;20090;-64
2023/08/24 08:44:31;;;;;;;7.78;4.82;;;;;;;25.65;52.77;100533.53;4090291;29;20050;-66
2023/08/24 08:46:34;;;;;;;11.38;4.35;;;;;;;25.88;51.29;100535.94;4084610;29;20032;-66
2023/08/24 08:48:38;;;;;;;14.05;3.92;;;;;;;26.03;49.79;100528.16;4085826;29;20043;-66
2023/08/24 08:50:41;;;;;;;6.53;3.85;;;;;;;25.83;50.72;100537.09;4085876;29;20036;-65
2023/08/24 08:52:46;;;;;;;6.55;3.50;;;;;;;25.84;51.71;100533.50;4085793;29;20043;-65
2023/08/24 08:54:49;;;;;;;8.70;3.58;;;;;;;25.81;50.98;100528.31;4070176;29;20104;-65
2023/08/24 08:56:53;;;;;;;9.07;3.85;;;;;;;25.95;50.73;100521.38;4087275;29;20050;-65
2023/08/24 08:58:57;;;;;;;8.13;4.43;;;;;;;26.12;50.02;100517.94;4087890;29;20123;-65
2023/08/24 09:01:03;;;;;;;;;;;;;;;26.26;50.25;100514.56;4075699;29;20425;-65
2023/08/24 09:03:07;;;;;;;8.27;3.28;;;;;;;26.39;50.57;100513.94;4087764;28;20388;-65
2023/08/24 09:05:10;;;;;;;5.13;2.80;;;;;;;26.48;49.31;100508.97;4089452;28;20502;-65
2023/08/24 09:07:14;;;;;;;7.13;3.35;;;;;;;26.62;48.16;100502.94;4090967;29;20180;-65
2023/08/24 09:09:19;;;;;;;5.25;3.00;;;;;;;26.75;48.49;100495.22;4085715;28;20691;-65
2023/08/24 09:11:23;;;;;;;8.07;3.33;;;;;;;26.93;48.24;100487.16;4088054;29;20031;-65
2023/08/24 09:13:26;;;;;;;7.10;3.42;;;;;;;26.99;47.67;100473.47;4091358;29;20074;-65
2023/08/24 09:15:35;;;;;;;5.35;3.00;;;;;;;27.04;47.16;100468.75;4090366;29;20040;-65
2023/08/24 09:17:43;;;;;;;7.03;2.90;;;;;;;27.13;47.47;100462.91;4089544;29;20036;-65
2023/08/24 09:19:46;;;;;;;6.53;2.78;;;;;;;27.02;47.63;100459.97;4096452;29;20453;-65
2023/08/24 09:21:49;;;;;;;5.25;2.88;;;;;;;26.91;47.09;100467.69;4097348;29;21602;-65
2023/08/24 09:23:53;;;;;;;4.55;2.78;;;;;;;26.89;47.24;100466.94;4087501;28;20486;-65
2023/08/24 09:25:57;;;;;;;7.60;2.95;;;;;;;27.13;45.91;100460.25;4088249;29;20059;-65
2023/08/24 09:28:01;;;;;;;8.00;2.75;;;;;;;27.21;44.82;100459.81;4094435;28;20516;-65
2023/08/24 09:30:05;;;;;;;5.88;2.33;;;;;;;27.40;44.89;100438.31;4088363;29;20669;-66
2023/08/24 09:32:08;;;;;;;;;;;;;;;27.62;44.23;100426.44;4089584;29;20410;-66